sensor_id;sensor_type;location;lat;lon;timestamp;temperature;humidity
37844;DHT22;63793;57.632;18.292;2023-06-10T00:00:30;8.90;99.90
37844;DHT22;63793;57.632;18.292;2023-06-10T00:02:58;8.90;99.90
37844;DHT22;63793;57.632;18.292;2023-06-10T00:05:26;8.90;99.90
37844;DHT22;63793;57.632;18.292;2023-06-10T00:07:56;8.80;99.90
37844;DHT22;63793;57.632;18.292;2023-06-10T00:10:24;8.80;99.90
37844;DHT22;63793;57.632;18.292;2023-06-10T00:12:51;8.80;99.90
37844;DHT22;63793;57.632;18.292;2023-06-10T00:15:18;8.70;99.90
37844;DHT22;63793;57.632;18.292;2023-06-10T00:17:45;8.70;99.90
37844;DHT22;63793;57.632;18.292;2023-06-10T00:20:12;8.70;99.90
37844;DHT22;63793;57.632;18.292;2023-06-10T00:22:39;8.60;99.90
37844;DHT22;63793;57.632;18.292;2023-06-10T00:25:09;8.60;99.90
37844;DHT22;63793;57.632;18.292;2023-06-10T00:27:37;8.60;99.90
37844;DHT22;63793;57.632;18.292;2023-06-10T00:30:05;8.50;99.90
37844;DHT22;63793;57.632;18.292;2023-06-10T00:32:34;8.50;99.90
37844;DHT22;63793;57.632;18.292;2023-06-10T00:35:03;8.50;99.90
37844;DHT22;63793;57.632;18.292;2023-06-10T00:37:31;8.40;99.90
37844;DHT22;63793;57.632;18.292;2023-06-10T00:39:58;8.40;99.90
37844;DHT22;63793;57.632;18.292;2023-06-10T00:42:25;8.40;99.90
37844;DHT22;63793;57.632;18.292;2023-06-10T00:44:54;8.30;99.90
37844;DHT22;63793;57.632;18.292;2023-06-10T00:47:21;8.30;99.90
37844;DHT22;63793;57.632;18.292;2023-06-10T00:49:49;8.30;99.90
37844;DHT22;63793;57.632;18.292;2023-06-10T00:52:18;8.30;99.90
37844;DHT22;63793;57.632;18.292;2023-06-10T00:54:46;8.30;99.90
37844;DHT22;63793;57.632;18.292;2023-06-10T00:57:14;8.20;99.90
37844;DHT22;63793;57.632;18.292;2023-06-10T00:59:43;8.20;99.90
37844;DHT22;63793;57.632;18.292;2023-06-10T01:02:14;8.20;99.90
37844;DHT22;63793;57.632;18.292;2023-06-10T01:04:40;8.20;99.90
37844;DHT22;63793;57.632;18.292;2023-06-10T01:07:27;8.20;99.90
37844;DHT22;63793;57.632;18.292;2023-06-10T01:10:38;8.20;99.90
37844;DHT22;63793;57.632;18.292;2023-06-10T01:13:10;8.20;99.90
37844;DHT22;63793;57.632;18.292;2023-06-10T01:15:38;8.20;99.90
37844;DHT22;63793;57.632;18.292;2023-06-10T01:18:07;8.20;99.90
37844;DHT22;63793;57.632;18.292;2023-06-10T01:20:43;8.10;99.90
37844;DHT22;63793;57.632;18.292;2023-06-10T01:23:11;8.10;99.90
37844;DHT22;63793;57.632;18.292;2023-06-10T01:25:44;8.10;99.90
37844;DHT22;63793;57.632;18.292;2023-06-10T01:28:41;8.10;99.90
37844;DHT22;63793;57.632;18.292;2023-06-10T01:31:18;8.10;99.90
37844;DHT22;63793;57.632;18.292;2023-06-10T01:33:53;8.10;99.90
37844;DHT22;63793;57.632;18.292;2023-06-10T01:36:23;8.10;99.90
37844;DHT22;63793;57.632;18.292;2023-06-10T01:38:53;8.10;99.90
37844;DHT22;63793;57.632;18.292;2023-06-10T01:41:21;8.10;99.90
37844;DHT22;63793;57.632;18.292;2023-06-10T01:43:48;8.10;99.90
37844;DHT22;63793;57.632;18.292;2023-06-10T01:46:16;8.10;99.90
37844;DHT22;63793;57.632;18.292;2023-06-10T01:48:47;8.10;99.90
37844;DHT22;63793;57.632;18.292;2023-06-10T01:51:15;8.10;99.90
37844;DHT22;63793;57.632;18.292;2023-06-10T01:53:42;8.10;99.90
37844;DHT22;63793;57.632;18.292;2023-06-10T01:56:09;8.10;99.90
37844;DHT22;63793;57.632;18.292;2023-06-10T01:58:36;8.10;99.90
37844;DHT22;63793;57.632;18.292;2023-06-10T02:01:03;8.10;99.90
37844;DHT22;63793;57.632;18.292;2023-06-10T02:03:30;8.10;99.90
37844;DHT22;63793;57.632;18.292;2023-06-10T02:05:57;8.10;99.90
37844;DHT22;63793;57.632;18.292;2023-06-10T02:08:25;8.10;99.90
37844;DHT22;63793;57.632;18.292;2023-06-10T02:10:54;8.20;99.90
37844;DHT22;63793;57.632;18.292;2023-06-10T02:13:21;8.20;99.90
37844;DHT22;63793;57.632;18.292;2023-06-10T02:15:53;8.20;99.90
37844;DHT22;63793;57.632;18.292;2023-06-10T02:18:20;8.20;99.90
37844;DHT22;63793;57.632;18.292;2023-06-10T02:20:48;8.20;99.90
37844;DHT22;63793;57.632;18.292;2023-06-10T02:23:15;8.20;99.90
37844;DHT22;63793;57.632;18.292;2023-06-10T02:25:42;8.20;99.90
37844;DHT22;63793;57.632;18.292;2023-06-10T02:28:09;8.30;99.90
37844;DHT22;63793;57.632;18.292;2023-06-10T02:30:39;8.30;99.90
37844;DHT22;63793;57.632;18.292;2023-06-10T02:33:08;8.30;99.90
37844;DHT22;63793;57.632;18.292;2023-06-10T02:35:39;8.30;99.90
37844;DHT22;63793;57.632;18.292;2023-06-10T02:38:06;8.30;99.90
37844;DHT22;63793;57.632;18.292;2023-06-10T02:40:34;8.30;99.90
37844;DHT22;63793;57.632;18.292;2023-06-10T02:43:01;8.30;99.90
37844;DHT22;63793;57.632;18.292;2023-06-10T02:45:28;8.30;99.90
37844;DHT22;63793;57.632;18.292;2023-06-10T02:47:57;8.40;99.90
37844;DHT22;63793;57.632;18.292;2023-06-10T02:50:24;8.40;99.90
37844;DHT22;63793;57.632;18.292;2023-06-10T02:53:02;8.40;99.90
37844;DHT22;63793;57.632;18.292;2023-06-10T02:55:29;8.40;99.90
37844;DHT22;63793;57.632;18.292;2023-06-10T02:58:01;8.40;99.90
37844;DHT22;63793;57.632;18.292;2023-06-10T03:00:28;8.40;99.90
37844;DHT22;63793;57.632;18.292;2023-06-10T03:02:55;8.50;99.90
37844;DHT22;63793;57.632;18.292;2023-06-10T03:05:30;8.60;99.90
37844;DHT22;63793;57.632;18.292;2023-06-10T03:07:59;8.60;99.90
37844;DHT22;63793;57.632;18.292;2023-06-10T03:10:27;8.70;99.90
37844;DHT22;63793;57.632;18.292;2023-06-10T03:12:54;8.70;99.90
37844;DHT22;63793;57.632;18.292;2023-06-10T03:15:23;8.80;99.90
37844;DHT22;63793;57.632;18.292;2023-06-10T03:17:51;8.80;99.90
37844;DHT22;63793;57.632;18.292;2023-06-10T03:20:18;8.90;99.90
37844;DHT22;63793;57.632;18.292;2023-06-10T03:22:46;8.90;99.90
37844;DHT22;63793;57.632;18.292;2023-06-10T03:25:13;8.90;99.90
37844;DHT22;63793;57.632;18.292;2023-06-10T03:27:47;8.90;99.90
37844;DHT22;63793;57.632;18.292;2023-06-10T03:30:14;9.00;99.90
37844;DHT22;63793;57.632;18.292;2023-06-10T03:32:42;9.10;99.90
37844;DHT22;63793;57.632;18.292;2023-06-10T03:35:12;9.10;99.90
37844;DHT22;63793;57.632;18.292;2023-06-10T03:37:40;9.20;99.90
37844;DHT22;63793;57.632;18.292;2023-06-10T03:40:08;9.20;99.90
37844;DHT22;63793;57.632;18.292;2023-06-10T03:42:37;9.30;99.90
37844;DHT22;63793;57.632;18.292;2023-06-10T03:45:05;9.30;99.90
37844;DHT22;63793;57.632;18.292;2023-06-10T03:47:34;9.40;99.90
37844;DHT22;63793;57.632;18.292;2023-06-10T03:50:05;9.40;99.90
37844;DHT22;63793;57.632;18.292;2023-06-10T03:52:34;9.40;99.90
37844;DHT22;63793;57.632;18.292;2023-06-10T03:55:02;9.50;99.90
37844;DHT22;63793;57.632;18.292;2023-06-10T03:57:30;9.50;99.90
37844;DHT22;63793;57.632;18.292;2023-06-10T03:59:58;9.50;99.90
37844;DHT22;63793;57.632;18.292;2023-06-10T04:02:25;9.60;99.90
37844;DHT22;63793;57.632;18.292;2023-06-10T04:04:52;9.60;99.90
37844;DHT22;63793;57.632;18.292;2023-06-10T04:07:19;9.70;99.90
37844;DHT22;63793;57.632;18.292;2023-06-10T04:09:47;9.70;99.90
37844;DHT22;63793;57.632;18.292;2023-06-10T04:12:14;9.80;99.90
37844;DHT22;63793;57.632;18.292;2023-06-10T04:14:41;9.80;99.90
37844;DHT22;63793;57.632;18.292;2023-06-10T04:17:10;9.90;99.90
37844;DHT22;63793;57.632;18.292;2023-06-10T04:19:38;9.90;99.90
37844;DHT22;63793;57.632;18.292;2023-06-10T04:22:05;10.00;99.90
37844;DHT22;63793;57.632;18.292;2023-06-10T04:24:32;10.00;99.90
37844;DHT22;63793;57.632;18.292;2023-06-10T04:27:00;10.10;99.90
37844;DHT22;63793;57.632;18.292;2023-06-10T04:29:27;10.20;99.90
37844;DHT22;63793;57.632;18.292;2023-06-10T04:31:54;10.20;99.90
37844;DHT22;63793;57.632;18.292;2023-06-10T04:34:22;10.30;99.90
37844;DHT22;63793;57.632;18.292;2023-06-10T04:36:49;10.30;99.90
37844;DHT22;63793;57.632;18.292;2023-06-10T04:39:17;10.40;99.90
37844;DHT22;63793;57.632;18.292;2023-06-10T04:41:46;10.40;99.90
37844;DHT22;63793;57.632;18.292;2023-06-10T04:44:13;10.50;99.90
37844;DHT22;63793;57.632;18.292;2023-06-10T04:46:40;10.60;99.90
37844;DHT22;63793;57.632;18.292;2023-06-10T04:49:09;10.60;99.90
37844;DHT22;63793;57.632;18.292;2023-06-10T04:51:35;10.70;99.90
37844;DHT22;63793;57.632;18.292;2023-06-10T04:54:02;10.80;99.90
37844;DHT22;63793;57.632;18.292;2023-06-10T04:56:30;10.80;99.90
37844;DHT22;63793;57.632;18.292;2023-06-10T04:58:57;10.90;99.90
37844;DHT22;63793;57.632;18.292;2023-06-10T05:01:24;11.00;99.90
37844;DHT22;63793;57.632;18.292;2023-06-10T05:03:51;11.00;99.90
37844;DHT22;63793;57.632;18.292;2023-06-10T05:06:18;11.00;99.90
37844;DHT22;63793;57.632;18.292;2023-06-10T05:08:45;11.10;99.90
37844;DHT22;63793;57.632;18.292;2023-06-10T05:11:12;11.20;99.90
37844;DHT22;63793;57.632;18.292;2023-06-10T05:13:41;11.30;99.90
37844;DHT22;63793;57.632;18.292;2023-06-10T05:16:08;11.50;99.90
37844;DHT22;63793;57.632;18.292;2023-06-10T05:18:35;11.60;99.90
37844;DHT22;63793;57.632;18.292;2023-06-10T05:21:03;11.80;99.90
37844;DHT22;63793;57.632;18.292;2023-06-10T05:23:30;11.80;99.90
37844;DHT22;63793;57.632;18.292;2023-06-10T05:25:57;12.00;99.90
37844;DHT22;63793;57.632;18.292;2023-06-10T05:28:25;12.10;99.90
37844;DHT22;63793;57.632;18.292;2023-06-10T05:30:52;12.20;99.90
37844;DHT22;63793;57.632;18.292;2023-06-10T05:33:19;12.40;99.90
37844;DHT22;63793;57.632;18.292;2023-06-10T05:35:46;12.40;99.90
37844;DHT22;63793;57.632;18.292;2023-06-10T05:38:13;12.50;99.90
37844;DHT22;63793;57.632;18.292;2023-06-10T05:40:40;12.60;99.90
37844;DHT22;63793;57.632;18.292;2023-06-10T05:43:07;12.70;99.90
37844;DHT22;63793;57.632;18.292;2023-06-10T05:45:34;12.90;99.90
37844;DHT22;63793;57.632;18.292;2023-06-10T05:48:01;13.00;99.90
37844;DHT22;63793;57.632;18.292;2023-06-10T05:50:27;13.00;99.90
37844;DHT22;63793;57.632;18.292;2023-06-10T05:52:54;13.20;99.90
37844;DHT22;63793;57.632;18.292;2023-06-10T05:55:21;13.30;99.90
37844;DHT22;63793;57.632;18.292;2023-06-10T05:57:58;13.30;99.90
37844;DHT22;63793;57.632;18.292;2023-06-10T06:00:26;13.30;99.90
37844;DHT22;63793;57.632;18.292;2023-06-10T06:02:54;13.40;99.90
37844;DHT22;63793;57.632;18.292;2023-06-10T06:05:21;13.40;99.90
37844;DHT22;63793;57.632;18.292;2023-06-10T06:07:48;13.50;99.90
37844;DHT22;63793;57.632;18.292;2023-06-10T06:10:17;13.60;99.90
37844;DHT22;63793;57.632;18.292;2023-06-10T06:12:45;13.60;99.90
37844;DHT22;63793;57.632;18.292;2023-06-10T06:15:11;13.80;99.90
37844;DHT22;63793;57.632;18.292;2023-06-10T06:17:38;13.90;99.90
37844;DHT22;63793;57.632;18.292;2023-06-10T06:20:06;14.00;99.90
37844;DHT22;63793;57.632;18.292;2023-06-10T06:22:33;14.00;99.90
37844;DHT22;63793;57.632;18.292;2023-06-10T06:25:00;14.10;99.90
37844;DHT22;63793;57.632;18.292;2023-06-10T06:27:28;14.20;99.90
37844;DHT22;63793;57.632;18.292;2023-06-10T06:29:55;14.20;99.90
37844;DHT22;63793;57.632;18.292;2023-06-10T06:32:22;14.20;99.90
37844;DHT22;63793;57.632;18.292;2023-06-10T06:34:51;14.30;99.90
37844;DHT22;63793;57.632;18.292;2023-06-10T06:37:24;14.40;99.90
37844;DHT22;63793;57.632;18.292;2023-06-10T06:40:01;14.40;99.90
37844;DHT22;63793;57.632;18.292;2023-06-10T06:42:30;14.50;99.50
37844;DHT22;63793;57.632;18.292;2023-06-10T06:45:02;14.50;99.30
37844;DHT22;63793;57.632;18.292;2023-06-10T06:47:29;14.50;99.20
37844;DHT22;63793;57.632;18.292;2023-06-10T06:49:56;14.60;97.90
37844;DHT22;63793;57.632;18.292;2023-06-10T06:52:23;14.70;97.80
37844;DHT22;63793;57.632;18.292;2023-06-10T06:54:50;14.70;98.40
37844;DHT22;63793;57.632;18.292;2023-06-10T06:57:17;14.70;98.10
37844;DHT22;63793;57.632;18.292;2023-06-10T06:59:44;14.90;97.70
37844;DHT22;63793;57.632;18.292;2023-06-10T07:02:11;14.90;97.10
37844;DHT22;63793;57.632;18.292;2023-06-10T07:04:38;15.00;96.60
37844;DHT22;63793;57.632;18.292;2023-06-10T07:07:07;15.10;96.30
37844;DHT22;63793;57.632;18.292;2023-06-10T07:09:37;15.10;95.90
37844;DHT22;63793;57.632;18.292;2023-06-10T07:12:04;15.20;95.80
37844;DHT22;63793;57.632;18.292;2023-06-10T07:14:32;15.20;95.60
37844;DHT22;63793;57.632;18.292;2023-06-10T07:16:59;15.30;95.40
37844;DHT22;63793;57.632;18.292;2023-06-10T07:19:26;15.20;94.80
37844;DHT22;63793;57.632;18.292;2023-06-10T07:21:53;15.30;95.00
37844;DHT22;63793;57.632;18.292;2023-06-10T07:24:20;15.30;94.90
37844;DHT22;63793;57.632;18.292;2023-06-10T07:26:47;15.40;93.60
37844;DHT22;63793;57.632;18.292;2023-06-10T07:29:14;15.40;93.00
37844;DHT22;63793;57.632;18.292;2023-06-10T07:31:42;15.50;93.30
37844;DHT22;63793;57.632;18.292;2023-06-10T07:34:08;15.60;93.60
37844;DHT22;63793;57.632;18.292;2023-06-10T07:36:35;15.70;94.10
37844;DHT22;63793;57.632;18.292;2023-06-10T07:39:04;15.70;94.00
37844;DHT22;63793;57.632;18.292;2023-06-10T07:41:31;15.90;93.50
37844;DHT22;63793;57.632;18.292;2023-06-10T07:43:58;16.00;92.70
37844;DHT22;63793;57.632;18.292;2023-06-10T07:46:25;16.10;91.70
37844;DHT22;63793;57.632;18.292;2023-06-10T07:48:54;16.10;91.30
37844;DHT22;63793;57.632;18.292;2023-06-10T07:51:21;16.10;90.70
37844;DHT22;63793;57.632;18.292;2023-06-10T07:53:48;16.20;90.20
37844;DHT22;63793;57.632;18.292;2023-06-10T07:56:15;16.20;90.50
37844;DHT22;63793;57.632;18.292;2023-06-10T07:58:42;16.30;90.50
37844;DHT22;63793;57.632;18.292;2023-06-10T08:01:09;16.40;90.50
37844;DHT22;63793;57.632;18.292;2023-06-10T08:03:36;16.50;90.20
37844;DHT22;63793;57.632;18.292;2023-06-10T08:06:03;16.50;90.40
37844;DHT22;63793;57.632;18.292;2023-06-10T08:08:30;16.50;90.50
37844;DHT22;63793;57.632;18.292;2023-06-10T08:10:57;16.70;90.10
37844;DHT22;63793;57.632;18.292;2023-06-10T08:13:24;16.70;89.40
37844;DHT22;63793;57.632;18.292;2023-06-10T08:15:51;16.90;90.00
37844;DHT22;63793;57.632;18.292;2023-06-10T08:18:20;16.90;87.90
37844;DHT22;63793;57.632;18.292;2023-06-10T08:20:47;16.90;88.10
37844;DHT22;63793;57.632;18.292;2023-06-10T08:23:14;16.80;87.60
37844;DHT22;63793;57.632;18.292;2023-06-10T08:25:41;16.90;86.60
37844;DHT22;63793;57.632;18.292;2023-06-10T08:28:08;16.90;87.80
37844;DHT22;63793;57.632;18.292;2023-06-10T08:30:35;17.00;86.40
37844;DHT22;63793;57.632;18.292;2023-06-10T08:33:02;17.10;86.90
37844;DHT22;63793;57.632;18.292;2023-06-10T08:35:29;17.20;87.70
37844;DHT22;63793;57.632;18.292;2023-06-10T08:37:56;17.20;87.10
37844;DHT22;63793;57.632;18.292;2023-06-10T08:40:23;17.30;87.30
37844;DHT22;63793;57.632;18.292;2023-06-10T08:43:03;17.30;84.10
37844;DHT22;63793;57.632;18.292;2023-06-10T08:45:31;17.40;82.40
37844;DHT22;63793;57.632;18.292;2023-06-10T08:47:59;17.40;84.70
37844;DHT22;63793;57.632;18.292;2023-06-10T08:50:27;17.50;83.00
37844;DHT22;63793;57.632;18.292;2023-06-10T08:52:57;17.50;82.70
37844;DHT22;63793;57.632;18.292;2023-06-10T08:55:38;17.60;83.80
37844;DHT22;63793;57.632;18.292;2023-06-10T08:58:08;17.70;85.00
37844;DHT22;63793;57.632;18.292;2023-06-10T09:00:35;17.80;84.00
37844;DHT22;63793;57.632;18.292;2023-06-10T09:03:04;17.90;84.30
37844;DHT22;63793;57.632;18.292;2023-06-10T09:05:34;18.00;84.00
37844;DHT22;63793;57.632;18.292;2023-06-10T09:08:04;18.10;83.50
37844;DHT22;63793;57.632;18.292;2023-06-10T09:10:32;18.20;80.20
37844;DHT22;63793;57.632;18.292;2023-06-10T09:12:59;18.30;80.00
37844;DHT22;63793;57.632;18.292;2023-06-10T09:15:27;18.20;79.20
37844;DHT22;63793;57.632;18.292;2023-06-10T09:17:54;18.20;77.40
37844;DHT22;63793;57.632;18.292;2023-06-10T09:20:23;18.10;78.60
37844;DHT22;63793;57.632;18.292;2023-06-10T09:22:50;18.10;79.60
37844;DHT22;63793;57.632;18.292;2023-06-10T09:25:17;18.20;79.80
37844;DHT22;63793;57.632;18.292;2023-06-10T09:27:51;18.00;80.20
37844;DHT22;63793;57.632;18.292;2023-06-10T09:32:57;18.10;80.40
37844;DHT22;63793;57.632;18.292;2023-06-10T09:35:25;18.30;79.40
37844;DHT22;63793;57.632;18.292;2023-06-10T09:37:59;18.40;80.00
37844;DHT22;63793;57.632;18.292;2023-06-10T09:40:27;18.40;79.60
37844;DHT22;63793;57.632;18.292;2023-06-10T09:42:56;18.50;80.20
37844;DHT22;63793;57.632;18.292;2023-06-10T09:45:31;18.60;78.00
37844;DHT22;63793;57.632;18.292;2023-06-10T09:47:58;18.70;79.60
37844;DHT22;63793;57.632;18.292;2023-06-10T09:50:25;18.70;79.30
37844;DHT22;63793;57.632;18.292;2023-06-10T09:52:53;18.70;80.10
37844;DHT22;63793;57.632;18.292;2023-06-10T09:55:19;18.80;79.70
37844;DHT22;63793;57.632;18.292;2023-06-10T09:57:49;19.00;80.60
37844;DHT22;63793;57.632;18.292;2023-06-10T10:00:17;19.10;79.10
37844;DHT22;63793;57.632;18.292;2023-06-10T10:02:50;19.20;78.70
37844;DHT22;63793;57.632;18.292;2023-06-10T10:05:20;19.10;78.20
37844;DHT22;63793;57.632;18.292;2023-06-10T10:07:48;19.10;77.70
37844;DHT22;63793;57.632;18.292;2023-06-10T10:10:16;19.30;78.00
37844;DHT22;63793;57.632;18.292;2023-06-10T10:12:46;19.40;78.00
37844;DHT22;63793;57.632;18.292;2023-06-10T10:15:16;19.30;77.10
37844;DHT22;63793;57.632;18.292;2023-06-10T10:18:06;19.30;77.50
37844;DHT22;63793;57.632;18.292;2023-06-10T10:20:38;19.20;77.40
37844;DHT22;63793;57.632;18.292;2023-06-10T10:23:08;19.30;78.10
37844;DHT22;63793;57.632;18.292;2023-06-10T10:25:38;19.20;78.10
37844;DHT22;63793;57.632;18.292;2023-06-10T10:28:11;19.30;78.10
37844;DHT22;63793;57.632;18.292;2023-06-10T10:30:53;19.50;76.00
37844;DHT22;63793;57.632;18.292;2023-06-10T10:33:31;19.50;76.60
37844;DHT22;63793;57.632;18.292;2023-06-10T10:36:00;19.70;75.90
37844;DHT22;63793;57.632;18.292;2023-06-10T10:38:28;19.80;75.50
37844;DHT22;63793;57.632;18.292;2023-06-10T10:40:56;19.90;76.20
37844;DHT22;63793;57.632;18.292;2023-06-10T10:43:28;20.10;74.90
37844;DHT22;63793;57.632;18.292;2023-06-10T10:46:02;20.10;74.00
37844;DHT22;63793;57.632;18.292;2023-06-10T10:48:37;20.00;73.80
37844;DHT22;63793;57.632;18.292;2023-06-10T10:51:04;20.00;73.80
37844;DHT22;63793;57.632;18.292;2023-06-10T10:53:31;19.80;75.00
37844;DHT22;63793;57.632;18.292;2023-06-10T10:56:12;19.90;75.70
37844;DHT22;63793;57.632;18.292;2023-06-10T10:58:40;19.70;73.20
37844;DHT22;63793;57.632;18.292;2023-06-10T11:01:16;19.60;74.70
37844;DHT22;63793;57.632;18.292;2023-06-10T11:03:44;19.70;73.80
37844;DHT22;63793;57.632;18.292;2023-06-10T11:06:15;19.80;73.80
37844;DHT22;63793;57.632;18.292;2023-06-10T11:11:49;19.90;72.40
37844;DHT22;63793;57.632;18.292;2023-06-10T11:14:29;20.00;73.00
37844;DHT22;63793;57.632;18.292;2023-06-10T11:16:58;20.10;72.80
37844;DHT22;63793;57.632;18.292;2023-06-10T11:19:32;20.20;72.70
37844;DHT22;63793;57.632;18.292;2023-06-10T11:22:06;20.30;72.50
37844;DHT22;63793;57.632;18.292;2023-06-10T11:24:34;20.40;72.40
37844;DHT22;63793;57.632;18.292;2023-06-10T11:27:20;20.30;72.70
37844;DHT22;63793;57.632;18.292;2023-06-10T11:32:34;20.20;70.90
37844;DHT22;63793;57.632;18.292;2023-06-10T11:35:05;20.10;72.30
37844;DHT22;63793;57.632;18.292;2023-06-10T11:37:34;20.20;73.00
37844;DHT22;63793;57.632;18.292;2023-06-10T11:40:02;20.30;71.90
37844;DHT22;63793;57.632;18.292;2023-06-10T11:42:29;20.40;73.10
37844;DHT22;63793;57.632;18.292;2023-06-10T11:44:56;20.60;73.60
37844;DHT22;63793;57.632;18.292;2023-06-10T11:47:23;20.70;71.00
37844;DHT22;63793;57.632;18.292;2023-06-10T11:49:56;20.70;70.70
37844;DHT22;63793;57.632;18.292;2023-06-10T11:52:28;20.60;70.30
37844;DHT22;63793;57.632;18.292;2023-06-10T11:54:55;20.60;70.80
37844;DHT22;63793;57.632;18.292;2023-06-10T11:57:22;20.60;71.10
37844;DHT22;63793;57.632;18.292;2023-06-10T11:59:49;20.70;72.80
37844;DHT22;63793;57.632;18.292;2023-06-10T12:02:17;20.80;73.60
37844;DHT22;63793;57.632;18.292;2023-06-10T12:04:46;20.90;70.90
37844;DHT22;63793;57.632;18.292;2023-06-10T12:07:19;20.90;72.10
37844;DHT22;63793;57.632;18.292;2023-06-10T12:09:46;20.90;71.30
37844;DHT22;63793;57.632;18.292;2023-06-10T12:12:13;21.00;72.30
37844;DHT22;63793;57.632;18.292;2023-06-10T12:15:02;21.10;73.00
37844;DHT22;63793;57.632;18.292;2023-06-10T12:20:03;21.10;69.30
37844;DHT22;63793;57.632;18.292;2023-06-10T12:22:41;21.10;70.60
37844;DHT22;63793;57.632;18.292;2023-06-10T12:25:09;21.00;70.20
37844;DHT22;63793;57.632;18.292;2023-06-10T12:27:39;20.90;69.50
37844;DHT22;63793;57.632;18.292;2023-06-10T12:30:07;20.90;70.50
37844;DHT22;63793;57.632;18.292;2023-06-10T12:35:07;20.90;71.00
37844;DHT22;63793;57.632;18.292;2023-06-10T12:37:34;20.90;68.70
37844;DHT22;63793;57.632;18.292;2023-06-10T12:40:06;21.00;69.10
37844;DHT22;63793;57.632;18.292;2023-06-10T12:42:36;20.90;70.00
37844;DHT22;63793;57.632;18.292;2023-06-10T12:45:04;21.00;70.70
37844;DHT22;63793;57.632;18.292;2023-06-10T12:47:38;21.10;69.90
37844;DHT22;63793;57.632;18.292;2023-06-10T12:50:06;20.90;69.50
37844;DHT22;63793;57.632;18.292;2023-06-10T12:52:34;21.00;69.70
37844;DHT22;63793;57.632;18.292;2023-06-10T12:55:01;21.20;70.20
37844;DHT22;63793;57.632;18.292;2023-06-10T12:57:28;21.20;69.80
37844;DHT22;63793;57.632;18.292;2023-06-10T12:59:56;21.30;69.00
37844;DHT22;63793;57.632;18.292;2023-06-10T13:02:30;21.30;68.70
37844;DHT22;63793;57.632;18.292;2023-06-10T13:04:58;21.40;68.90
37844;DHT22;63793;57.632;18.292;2023-06-10T13:07:25;21.50;67.20
37844;DHT22;63793;57.632;18.292;2023-06-10T13:09:53;21.40;67.80
37844;DHT22;63793;57.632;18.292;2023-06-10T13:12:20;21.30;67.50
37844;DHT22;63793;57.632;18.292;2023-06-10T13:15:07;21.30;68.00
37844;DHT22;63793;57.632;18.292;2023-06-10T13:17:35;21.60;68.20
37844;DHT22;63793;57.632;18.292;2023-06-10T13:20:07;21.70;68.80
37844;DHT22;63793;57.632;18.292;2023-06-10T13:22:34;21.80;69.10
37844;DHT22;63793;57.632;18.292;2023-06-10T13:25:03;21.80;66.90
37844;DHT22;63793;57.632;18.292;2023-06-10T13:27:31;21.80;66.70
37844;DHT22;63793;57.632;18.292;2023-06-10T13:29:58;21.70;67.50
37844;DHT22;63793;57.632;18.292;2023-06-10T13:32:25;21.80;67.30
37844;DHT22;63793;57.632;18.292;2023-06-10T13:34:52;21.90;67.50
37844;DHT22;63793;57.632;18.292;2023-06-10T13:37:20;21.70;67.00
37844;DHT22;63793;57.632;18.292;2023-06-10T13:39:46;21.60;67.50
37844;DHT22;63793;57.632;18.292;2023-06-10T13:42:18;21.80;67.60
37844;DHT22;63793;57.632;18.292;2023-06-10T13:44:45;21.60;65.70
37844;DHT22;63793;57.632;18.292;2023-06-10T13:47:12;21.80;66.80
37844;DHT22;63793;57.632;18.292;2023-06-10T13:49:39;21.70;66.70
37844;DHT22;63793;57.632;18.292;2023-06-10T13:52:07;21.80;66.90
37844;DHT22;63793;57.632;18.292;2023-06-10T13:54:34;21.80;66.60
37844;DHT22;63793;57.632;18.292;2023-06-10T13:57:03;21.90;66.00
37844;DHT22;63793;57.632;18.292;2023-06-10T13:59:30;21.80;64.90
37844;DHT22;63793;57.632;18.292;2023-06-10T14:01:57;21.50;65.90
37844;DHT22;63793;57.632;18.292;2023-06-10T14:04:23;21.80;67.50
37844;DHT22;63793;57.632;18.292;2023-06-10T14:06:50;21.80;66.50
37844;DHT22;63793;57.632;18.292;2023-06-10T14:09:17;21.60;66.10
37844;DHT22;63793;57.632;18.292;2023-06-10T14:11:44;21.70;66.50
37844;DHT22;63793;57.632;18.292;2023-06-10T14:14:11;21.70;65.90
37844;DHT22;63793;57.632;18.292;2023-06-10T14:16:38;21.60;66.00
37844;DHT22;63793;57.632;18.292;2023-06-10T14:19:09;21.70;66.30
37844;DHT22;63793;57.632;18.292;2023-06-10T14:21:35;21.80;66.80
37844;DHT22;63793;57.632;18.292;2023-06-10T14:24:02;21.80;65.50
37844;DHT22;63793;57.632;18.292;2023-06-10T14:26:30;21.70;66.90
37844;DHT22;63793;57.632;18.292;2023-06-10T14:28:58;21.90;66.70
37844;DHT22;63793;57.632;18.292;2023-06-10T14:31:25;21.90;67.60
37844;DHT22;63793;57.632;18.292;2023-06-10T14:33:52;21.70;66.80
37844;DHT22;63793;57.632;18.292;2023-06-10T14:36:19;21.70;67.10
37844;DHT22;63793;57.632;18.292;2023-06-10T14:38:46;21.50;65.80
37844;DHT22;63793;57.632;18.292;2023-06-10T14:41:13;21.50;66.90
37844;DHT22;63793;57.632;18.292;2023-06-10T14:43:40;21.40;68.00
37844;DHT22;63793;57.632;18.292;2023-06-10T14:46:07;21.40;68.10
37844;DHT22;63793;57.632;18.292;2023-06-10T14:48:34;21.40;67.50
37844;DHT22;63793;57.632;18.292;2023-06-10T14:51:01;21.40;67.70
37844;DHT22;63793;57.632;18.292;2023-06-10T14:53:29;21.30;67.40
37844;DHT22;63793;57.632;18.292;2023-06-10T14:55:56;21.20;67.30
37844;DHT22;63793;57.632;18.292;2023-06-10T14:58:22;21.40;69.00
37844;DHT22;63793;57.632;18.292;2023-06-10T15:00:49;21.40;67.70
37844;DHT22;63793;57.632;18.292;2023-06-10T15:03:17;21.60;68.40
37844;DHT22;63793;57.632;18.292;2023-06-10T15:05:44;21.60;67.80
37844;DHT22;63793;57.632;18.292;2023-06-10T15:08:10;21.70;67.40
37844;DHT22;63793;57.632;18.292;2023-06-10T15:10:38;21.90;67.30
37844;DHT22;63793;57.632;18.292;2023-06-10T15:13:04;21.90;68.00
37844;DHT22;63793;57.632;18.292;2023-06-10T15:15:31;22.00;68.00
37844;DHT22;63793;57.632;18.292;2023-06-10T15:17:58;22.00;66.60
37844;DHT22;63793;57.632;18.292;2023-06-10T15:20:25;21.90;67.00
37844;DHT22;63793;57.632;18.292;2023-06-10T15:22:52;21.90;67.60
37844;DHT22;63793;57.632;18.292;2023-06-10T15:25:20;22.00;67.70
37844;DHT22;63793;57.632;18.292;2023-06-10T15:27:57;22.10;68.00
37844;DHT22;63793;57.632;18.292;2023-06-10T15:30:24;22.20;67.20
37844;DHT22;63793;57.632;18.292;2023-06-10T15:32:51;22.10;66.70
37844;DHT22;63793;57.632;18.292;2023-06-10T15:35:18;22.20;66.90
37844;DHT22;63793;57.632;18.292;2023-06-10T15:37:45;22.10;66.80
37844;DHT22;63793;57.632;18.292;2023-06-10T15:40:12;22.00;66.80
37844;DHT22;63793;57.632;18.292;2023-06-10T15:42:39;22.00;67.00